Terminal Aerodrome Forecast
Issued by NWS

Home | Current Version | Previous Version | Text Only | Print | Product List | Glossary On
Versions: 1 2 3 4 5 6 7 8 9 10 11 12 13 14 15 16 17 18 19 20 21 22 23 24
000
FTPQ31 PGUM 032339
TAFGUM
TAF

TAF
PTKK 032338Z 0400/0424 05007KT P6SM VCSH FEW016 SCT040 BKN140=

USA.gov is the U.S. government's official web portal to all federal, state and local government web resources and services.